createdAt,value
2022-10-06T00:07:49.099Z,0.70
2022-10-06T00:17:50.331Z,0.80
2022-10-06T00:27:51.547Z,1.25
2022-10-06T00:37:52.810Z,0.80
2022-10-06T00:47:54.060Z,0.93
2022-10-06T00:57:55.341Z,1.05
2022-10-06T01:07:56.572Z,0.80
2022-10-06T01:17:57.816Z,1.00
2022-10-06T01:27:59.095Z,0.90
2022-10-06T01:38:00.391Z,1.23
2022-10-06T01:48:01.638Z,0.80
2022-10-06T01:58:02.866Z,1.27
2022-10-06T02:08:04.112Z,1.25
2022-10-06T02:18:05.422Z,1.23
2022-10-06T02:28:06.736Z,1.10
2022-10-06T02:38:08.006Z,1.50
2022-10-06T02:48:09.215Z,1.30
2022-10-06T02:58:10.457Z,1.40
2022-10-06T03:08:11.702Z,1.15
2022-10-06T03:18:12.921Z,1.25
2022-10-06T03:28:14.361Z,1.15
2022-10-06T03:38:15.689Z,1.25
2022-10-06T03:48:17.001Z,1.30
2022-10-06T03:58:18.224Z,1.52
2022-10-06T04:08:19.457Z,1.30
2022-10-06T04:18:20.720Z,1.35
2022-10-06T04:28:21.992Z,1.20
2022-10-06T04:38:23.315Z,1.30
2022-10-06T04:48:24.535Z,1.15
2022-10-06T04:58:25.908Z,1.33
2022-10-06T05:08:27.840Z,1.70
2022-10-06T05:18:29.514Z,1.20
2022-10-06T05:28:31.392Z,1.60
2022-10-06T05:38:33.164Z,1.65
2022-10-06T05:48:34.488Z,1.25
2022-10-06T05:58:35.968Z,1.30
2022-10-06T06:08:37.440Z,1.50
2022-10-06T06:18:38.809Z,1.50
2022-10-06T06:28:40.136Z,1.70
2022-10-06T06:38:41.460Z,1.42
2022-10-06T06:48:42.698Z,1.83
2022-10-06T06:58:43.944Z,1.50
2022-10-06T07:08:45.380Z,1.90
2022-10-06T07:18:46.787Z,1.80
2022-10-06T07:28:47.997Z,1.83
2022-10-06T07:38:49.301Z,2.08
2022-10-06T07:48:50.619Z,1.88
2022-10-06T07:58:52.080Z,1.95
2022-10-06T08:08:53.600Z,1.92
2022-10-06T08:18:55.013Z,2.15
2022-10-06T08:28:56.371Z,2.00
2022-10-06T08:38:57.737Z,1.75
2022-10-06T08:49:00.062Z,1.95
2022-10-06T08:59:01.295Z,2.00
2022-10-06T09:09:02.634Z,1.70
2022-10-06T09:19:08.840Z,2.17
2022-10-06T09:29:10.758Z,1.88
2022-10-06T09:39:12.105Z,1.98
2022-10-06T09:49:13.419Z,2.15
2022-10-06T09:59:14.704Z,1.92
2022-10-06T10:09:17.855Z,1.70
2022-10-06T10:19:22.009Z,1.55
2022-10-06T10:29:23.314Z,1.65
2022-10-06T10:39:24.564Z,1.70
2022-10-06T10:49:25.897Z,1.77
2022-10-06T10:59:27.228Z,1.63
2022-10-06T11:09:28.569Z,1.50
2022-10-06T11:19:29.839Z,1.75
2022-10-06T11:29:31.275Z,1.45
2022-10-06T11:39:32.623Z,1.40
2022-10-06T11:49:33.981Z,1.73
2022-10-06T11:59:35.284Z,1.65
2022-10-06T12:19:53.687Z,1.60
2022-10-06T12:30:02.611Z,1.42
2022-10-06T12:40:05.485Z,1.25
2022-10-06T12:50:08.506Z,1.23
2022-10-06T13:00:09.794Z,1.33
2022-10-06T13:10:11.162Z,1.30
2022-10-06T13:20:12.525Z,1.27
2022-10-06T13:30:13.924Z,1.48
2022-10-06T13:40:21.784Z,1.30
2022-10-06T13:50:28.855Z,1.20
2022-10-06T14:00:30.263Z,1.52
2022-10-06T14:10:31.858Z,1.33
2022-10-06T14:20:34.712Z,1.40
2022-10-06T14:30:35.961Z,1.48
2022-10-06T14:40:39.672Z,1.27
2022-10-06T14:50:41.001Z,1.40
2022-10-06T15:00:49.460Z,1.10
2022-10-06T15:10:57.816Z,1.05
2022-10-06T15:21:06.235Z,1.10
2022-10-06T15:31:14.737Z,1.30
2022-10-06T15:41:23.872Z,1.10
2022-10-06T15:51:31.600Z,1.10
2022-10-06T16:01:39.662Z,0.75
2022-10-06T16:11:47.557Z,0.93
2022-10-06T16:21:58.736Z,1.00
2022-10-06T16:42:29.124Z,1.00
2022-10-06T16:52:33.229Z,1.23
2022-10-06T17:02:37.654Z,1.00
2022-10-06T17:12:39.487Z,1.10
2022-10-06T17:22:41.476Z,1.00
2022-10-06T17:32:43.213Z,0.80
2022-10-06T17:42:44.726Z,1.08
2022-10-06T17:52:46.124Z,0.98
2022-10-06T18:02:47.514Z,1.10
2022-10-06T18:12:48.938Z,1.30
2022-10-06T18:22:50.263Z,1.38
2022-10-06T18:43:12.979Z,1.50
2022-10-06T18:53:14.401Z,1.55
2022-10-06T19:03:15.726Z,1.50
2022-10-06T19:13:17.201Z,1.80
2022-10-06T19:23:18.435Z,2.30
2022-10-06T19:33:19.771Z,2.10
2022-10-06T19:43:21.092Z,2.20
2022-10-06T19:53:22.509Z,2.50
2022-10-06T20:03:23.757Z,1.90
2022-10-06T20:13:25.092Z,1.98
2022-10-06T20:23:26.440Z,2.05
2022-10-06T20:33:27.700Z,2.22
2022-10-06T20:43:29.025Z,2.00
2022-10-06T20:53:30.338Z,2.40
2022-10-06T21:03:31.680Z,2.00
2022-10-06T21:13:33.002Z,1.90
2022-10-06T21:23:34.308Z,2.20
2022-10-06T21:33:35.518Z,2.30
2022-10-06T21:43:36.736Z,2.17
2022-10-06T21:53:37.962Z,2.00
2022-10-06T22:03:39.242Z,2.20
2022-10-06T22:13:40.465Z,2.25
2022-10-06T22:23:41.691Z,2.08
2022-10-06T22:33:42.952Z,2.30
2022-10-06T22:43:44.201Z,2.17
2022-10-06T22:53:45.433Z,2.10
2022-10-06T23:03:46.730Z,2.30
2022-10-06T23:13:48.023Z,2.50
2022-10-06T23:23:49.280Z,2.20
2022-10-06T23:33:50.524Z,2.30
2022-10-06T23:43:51.759Z,2.35
2022-10-06T23:53:53.013Z,2.30
